Hollis, New Hampshire
Current Conditions -  °F | °C
As of 10:17 PM on Monday 26 Jan 2015 (Local Time) from KFIT Reporting Station
Light Snow Light Snow  
Wind Chill:   Ceiling: 1800
Heat Index: 17°   Visibility: 1.5mi
Dew Point: 10°   Wind: 16mph
Humidity: 74%   Direction: 10°N
Pressure: 29.94"   Gusts: 23mph
Location:  42.74°N, 71.59°W
Report Text: KFIT 270317Z AUTO 01014G20KT 1 1/2SM -SN OVC018 M08/M12 A2994 RMK AO2 P0000 T10831122
Loading
Personal Weather Stations






























Interactive Weather Map New forecast layout! Learn more

10-Day Weather Forecast

Advertisements
Track Severe Weather on mobile